Quick Links (Output Below):   Max & Min Temps   /   Climate Reports   /   Zone Forecasts
River Forecasts   /   Forestry Forecasts   /   Aviation Forecasts   /   Radars   /   Features

Terminal Aerodrome Forecast (Highfill)

Pick a Site:
Arkadelphia | El Dorado | Fayetteville | Fort Smith | Harrison | Highfill | Hot Springs | Jonesboro
Little Rock | Monticello | Mountain Home | Pine Bluff | Texarkana
 Forecast 

KXNA 210520Z 2106/2206 VRB05KT P6SM SKC
     FM211400 23011KT P6SM BKN100 PROB30 2115/2121 -SHRA BKN070
     FM220100 20004KT P6SM BKN070=


 Latest METARs (Observations) 
How to Decode METARs
07Z KXNA 210653Z AUTO 22004KT 10SM CLR 07/01 A2996 RMK AO2 SLP142
         T00670011
         
06Z KXNA 210553Z AUTO 20005KT 10SM CLR 07/01 A2997 RMK AO2 SLP146
         T00670011 10139 20061 401610061 53002
         
05Z KXNA 210453Z AUTO 22005KT 10SM CLR 07/01 A2996 RMK AO2 SLP143
         T00720011
         
04Z KXNA 210353Z AUTO 22004KT 10SM CLR 07/01 A2996 RMK AO2 SLP144
         T00670011
         
03Z KXNA 210253Z 23005KT 10SM CLR 08/01 A2996 RMK AO2 SLP145 T00780011
         53011
         
02Z KXNA 210153Z 26003KT 10SM CLR 09/01 A2995 RMK AO2 SLP139
         T00940011
         
01Z KXNA 210053Z 30003KT 10SM CLR 12/01 A2993 RMK AO2 SLP134
         T01170006
         
00Z KXNA 202353Z 31007KT 10SM CLR 14/M01 A2993 RMK AO2 SLP133 60000
         T01391011 10161 20139 53004
         
***** Today's Observations (Above) *****


23Z KXNA 202253Z 31010KT 10SM CLR 16/M01 A2992 RMK AO2 SLP130
         T01561006
         
22Z KXNA 202153Z 31018G23KT 10SM FEW070 16/M01 A2991 RMK AO2 SLP126
         T01561011
         
***** Yesterday's Observations (Above) *****


Back to Main Page
http://www.srh.noaa.gov/lzk/qfcst.php

USA.gov is the U.S. government's official web portal to all federal, state and local government web resources and services.